Bradley International Airport
KBDL : now visible

Airfield :











YOU CAN JOIN US ON...

 
LOGIN :

Register | Disclaimer

   EN    FR    IT 

 









Legend :    VFR   Marginal VFR   IFR   Intensive IFR   Very Intensive IFR
Visi :
Ceiling :
>= 8 km
>= 3000ft
5 to 8 km
1000 to 3000 ft
1500m to 5 km
500 to 1000 ft
800 to 1500m
200 to 500 ft
< 800m
< 200 ft
Symbols :   Thunderstorms  Fog  Heavy snow  Heavy precipitations  Wind > 20 kt







- Airport Elevation : 173 ft
- IATA code : BDL


KBDL - Bradley International

CURRENT METAR :
  • 260151Z 02006KT 10SM FEW150 14/09 A3029 RMK AO2 SLP257 T01390089

EXPIRED METARs :
  • 260051Z 05004KT 10SM FEW065 FEW080 17/10 A3029 RMK AO2 SLP257 T01670100
  • 252351Z 07006KT 10SM FEW065 18/11 A3027 RMK AO2 SLP249 T01830106 10233 20183 53005

TAF KBDL
Valid from the 26 at 00:00 until the 27 at 06:00 UTC


252320Z 2600/2706 06008KT P6SM FEW050 FEW140
FM260200 03004KT P6SM FEW250
FM261000 01006KT P6SM FEW090
FM261500 06005KT P6SM FEW050
FM262300 10004KT P6SM FEW050
FM270300 13003KT P6SM FEW250
No reported NOTAMs for that airfield.



MET'MAP, your aeronautical weather chart ! - Copyright ORBIFLY December 2007 - Disclaimer

ORBIFLY MET'MAP TEAM :

Programming & Development : Alexandra Zaïnal
Concept & Development : Baudouin d'Aumeries
Co-Development & Prog : Marc-Olivier Méhu
Technical & hardware support : Manuel Goepfert

Contact : metmap@orbifly.com




SOURCES & CREDITS :

   NOAA       Earth
Advisory